Soaring Guidance
Issued by NWS Reno, NV

Home | Current Version | Previous Version | Text Only | Print | Product List | Glossary On
Versions: 1 2 3 4 5 6 7 8 9 10 11 12 13 14 15
000
UXUS97 KREV 021347
SRGREV

SOARING FORECAST
NATIONAL WEATHER SERVICE - RENO NV
700 AM PDT SUN AUG 2 2015

THIS SOARING FORECAST IS FOR THE EASTERN SIERRA AND WESTERN NEVADA
WITH SPECIFIC INDICES FOR THE GREATER RENO AREA.

THIS FORECAST IS PREPARED DAILY BY 700 AM AND IS NOT UPDATED.

FOR CURRENT FLIGHT CONDITIONS...FORECASTS...AND ADVISORIES...ACCESS
YOUR LOCAL BRIEFING OUTLET OR FLIGHT SERVICE STATION.

*******************************************************************
FORECASTED LOCAL INDICES FOR RENO:        TODAY     YESTERDAY
FORECASTED MAX TEMP AT RENO (DEG F).....     91          93
FORECASTED TRIGGER TEMPERATURE (DEG F)..     81          86
   EXCEEDED YESTERDAY BY 1155 AM PDT
FORECASTED MAXIMUM ALTITUDE (FT MSL)....  16600       17600
FORECASTED SOARING INDEX (FPM)..........   1128        1278
FORECASTED K-INDEX.........VALID 18Z....     27          22
FORECASTED K-INDEX.........VALID 00Z....     34          31
FORECASTED LIFTED INDEX....VALID 18Z....      1           3
FORECASTED LIFTED INDEX....VALID 00Z....     -1           0

AFTERNOON WINDS ALOFT FORECAST
MSL (FT) WIND/TEMP
9000  2906/+16
10000 2906/+13
12000 2905/+07
14000 2205/+01
16000 2007/-04
18000 1910/-09
24000 2516/-19
30000 1624/-35
34000 1636/-46
39000 1633/-58

SLIDE MOUNTAIN DATA:
     DATE       TIME     TEMP  DEWPT   RH         WIND (MPH)
                        (F)   (F)           | DIR  SPEED GUST
2015-08-02    05:50      54    38     54    | 263   13   19
2015-08-02    05:30      54    40     60    | 267   13   19
2015-08-02    05:20      54    41     64    | 267   14   22
2015-08-02    05:00      54    41     66    | 264   13   21

RENO TAF FORECAST:
KRNO 021120Z 0212/0312 VRB04KT P6SM SCT100 BKN150
     FM021700 VRB03KT P6SM VCSH SCT090 BKN150
     FM022200 30011G19KT P6SM VCTS BKN080CB BKN150
     FM030000 32012KT P6SM SCT080 BKN150
     FM030500 VRB03KT P6SM SCT150

CARSON CITY TAF FORECAST:
KCXP 021120Z 0212/0312 VRB03KT P6SM SCT100 BKN150
     FM021700 08009KT P6SM VCSH SCT080 BKN150
     FM022100 25009G16KT P6SM VCTS BKN080CB BKN150
     FM022300 29010KT P6SM SCT080 BKN150
     FM030400 VRB03KT P6SM SCT150

OUTLOOK FOR THE RENO-CARSON CITY-MINDEN AREA:
.MONDAY...SUNNY IN THE MORNING...THEN PARTLY CLOUDY WITH A SLIGHT
CHANCE OF SHOWERS AND THUNDERSTORMS IN THE AFTERNOON. HIGHS 86 TO
91. LIGHT WINDS BECOMING WEST UP TO 10 MPH IN THE AFTERNOON.

SUNRISE AND SUNSET
AUGUST  2 2015........SUNRISE   559 AM PDT   SUNSET   811 PM PDT
AUGUST  3 2015........SUNRISE   600 AM PDT   SUNSET   810 PM PDT


USA.gov is the U.S. government's official web portal to all federal, state and local government web resources and services.